Time;durP1;ratioP1;P1;durP2;ratioP2;P2;SDS_P1;SDS_P2;PMS_P1;PMS_P2;Temp;Humidity;BMP_temperature;BMP_pressure;BME280_temperature;BME280_humidity;BME280_pressure;Samples;Min_cycle;Max_cycle;Signal;HPM_P1;HPM_P2
2021/09/26 00:01:20;;;;;;;7.53;6.82;;;16.30;99.90;;;;;;2625258;47;20173;-76
2021/09/26 00:03:49;;;;;;;8.18;7.40;;;16.20;99.90;;;;;;2626048;54;20160;-77
2021/09/26 00:06:18;;;;;;;8.38;7.25;;;16.10;99.90;;;;;;2626504;47;20153;-77
2021/09/26 00:08:47;;;;;;;8.20;7.40;;;16.10;99.90;;;;;;2626323;54;20157;-77
2021/09/26 00:11:16;;;;;;;8.88;8.07;;;16.10;99.90;;;;;;2626096;54;20719;-76
2021/09/26 00:13:47;;;;;;;8.20;7.47;;;16.10;99.90;;;;;;2625616;47;20152;-76
2021/09/26 00:16:16;;;;;;;8.32;7.63;;;16.10;99.90;;;;;;2626347;47;20178;-77
2021/09/26 00:18:45;;;;;;;7.53;6.93;;;16.10;99.90;;;;;;2626092;47;20149;-77
2021/09/26 00:21:14;;;;;;;6.93;6.22;;;16.10;99.90;;;;;;2627038;47;20214;-76
2021/09/26 00:23:43;;;;;;;7.85;7.15;;;16.00;99.90;;;;;;2627357;47;20145;-77
2021/09/26 00:26:14;;;;;;;8.35;7.50;;;16.00;99.90;;;;;;2630827;47;20156;-76
2021/09/26 00:28:43;;;;;;;8.52;7.72;;;16.00;99.90;;;;;;2630531;47;20153;-77
2021/09/26 00:31:14;;;;;;;8.80;8.00;;;15.90;99.90;;;;;;2626876;54;20177;-76
2021/09/26 00:33:43;;;;;;;7.47;6.78;;;15.90;99.90;;;;;;2627188;47;20153;-76
2021/09/26 00:36:12;;;;;;;9.07;8.27;;;16.00;99.90;;;;;;2626873;54;20169;-77
2021/09/26 00:38:41;;;;;;;8.80;7.90;;;15.90;99.90;;;;;;2626487;47;20154;-77
2021/09/26 00:41:10;;;;;;;8.73;7.93;;;15.90;99.90;;;;;;2626929;47;20181;-77
2021/09/26 00:43:39;;;;;;;8.88;8.10;;;15.80;99.90;;;;;;2625978;54;20160;-77
2021/09/26 00:46:07;;;;;;;8.15;7.43;;;15.80;99.90;;;;;;2626320;47;20157;-77
2021/09/26 00:48:39;;;;;;;8.65;7.85;;;15.80;99.90;;;;;;2626300;54;20150;-76
2021/09/26 00:51:12;;;;;;;7.88;7.07;;;15.80;99.90;;;;;;2626490;47;20185;-77
2021/09/26 00:53:44;;;;;;;7.90;7.20;;;15.80;99.90;;;;;;2626264;46;20184;-76
2021/09/26 00:56:13;;;;;;;11.27;9.27;;;15.80;99.90;;;;;;2626654;54;20159;-77
2021/09/26 00:58:45;;;;;;;8.68;7.88;;;15.70;99.90;;;;;;2627225;39;20554;-76
2021/09/26 01:01:14;;;;;;;8.88;8.07;;;15.60;99.90;;;;;;2626730;54;20169;-76
2021/09/26 01:03:45;;;;;;;8.63;7.70;;;15.70;99.90;;;;;;2628708;39;20596;-76
2021/09/26 01:06:25;;;;;;;9.50;8.55;;;15.70;99.90;;;;;;2626656;39;20565;-77
2021/09/26 01:09:04;;;;;;;7.50;6.88;;;15.70;99.90;;;;;;2626629;54;20188;-77
2021/09/26 01:11:42;;;;;;;9.10;8.20;;;15.70;99.90;;;;;;2626053;54;20252;-76
2021/09/26 01:14:22;;;;;;;9.10;8.30;;;15.70;99.90;;;;;;2625905;54;20149;-76
2021/09/26 01:17:04;;;;;;;8.15;7.35;;;15.60;99.90;;;;;;2625511;51;20153;-76
2021/09/26 01:20:13;;;;;;;8.93;7.63;;;15.60;99.90;;;;;;2625941;47;20149;-75
2021/09/26 01:22:59;;;;;;;8.93;8.13;;;15.50;99.90;;;;;;2625591;46;20176;-75
2021/09/26 01:25:53;;;;;;;9.20;8.40;;;15.70;99.90;;;;;;2626051;47;20157;-76
2021/09/26 01:28:47;;;;;;;8.65;7.72;;;15.70;99.90;;;;;;2625856;54;20157;-76
2021/09/26 01:31:21;;;;;;;10.80;8.23;;;15.50;99.90;;;;;;2625658;54;20191;-75
2021/09/26 01:33:55;;;;;;;7.85;7.05;;;15.40;99.90;;;;;;2625121;47;20153;-75
2021/09/26 01:36:29;;;;;;;8.70;7.97;;;15.40;99.90;;;;;;2626094;47;20149;-75
2021/09/26 01:39:05;;;;;;;9.05;8.25;;;15.30;99.90;;;;;;2625741;47;20155;-76
2021/09/26 01:41:40;;;;;;;9.45;8.45;;;15.40;99.90;;;;;;2625233;47;20165;-75
2021/09/26 01:44:15;;;;;;;9.80;7.78;;;15.40;99.90;;;;;;2625486;46;20248;-75
2021/09/26 01:46:55;;;;;;;8.90;8.02;;;15.30;99.90;;;;;;2625133;47;20152;-75
2021/09/26 01:49:28;;;;;;;7.50;6.80;;;15.30;99.90;;;;;;2625652;54;20667;-75
2021/09/26 01:51:59;;;;;;;8.55;7.82;;;15.20;99.90;;;;;;2625384;54;20234;-75
2021/09/26 01:54:29;;;;;;;8.95;8.07;;;15.20;99.90;;;;;;2625207;47;20160;-76
2021/09/26 01:56:59;;;;;;;8.30;7.50;;;15.20;99.90;;;;;;2625726;47;20739;-75
2021/09/26 01:59:29;;;;;;;8.75;7.78;;;15.20;99.90;;;;;;2625714;47;20156;-75
2021/09/26 02:02:02;;;;;;;7.85;7.15;;;15.20;99.90;;;;;;2624108;47;20192;-75
2021/09/26 02:04:32;;;;;;;8.18;7.47;;;15.10;99.90;;;;;;2625558;47;20157;-76
2021/09/26 02:07:02;;;;;;;8.60;7.90;;;15.10;99.90;;;;;;2628756;39;20566;-75
2021/09/26 02:09:31;;;;;;;9.02;8.23;;;15.20;99.90;;;;;;2626135;47;20168;-76
2021/09/26 02:12:01;;;;;;;9.00;8.13;;;15.20;99.90;;;;;;2625654;54;20173;-75
2021/09/26 02:14:30;;;;;;;8.68;7.97;;;15.10;99.90;;;;;;2625625;39;20566;-75
2021/09/26 02:17:03;;;;;;;8.15;7.35;;;15.10;99.90;;;;;;2625314;54;20702;-75
2021/09/26 02:19:33;;;;;;;9.90;8.23;;;15.10;99.90;;;;;;2625590;46;20679;-75
2021/09/26 02:22:02;;;;;;;9.48;7.95;;;15.00;99.90;;;;;;2626114;47;20722;-75
2021/09/26 02:24:32;;;;;;;8.95;8.05;;;15.00;99.90;;;;;;2625947;54;20141;-76
2021/09/26 02:27:00;;;;;;;7.68;6.90;;;15.00;99.90;;;;;;2625535;54;20711;-76
2021/09/26 02:29:29;;;;;;;9.23;8.32;;;15.00;99.90;;;;;;2626148;47;20149;-76
2021/09/26 02:32:01;;;;;;;8.20;7.47;;;15.00;99.90;;;;;;2625986;47;20193;-76
2021/09/26 02:34:30;;;;;;;9.20;7.68;;;15.00;99.90;;;;;;2625620;54;20159;-76
2021/09/26 02:36:58;;;;;;;9.00;8.10;;;15.00;99.90;;;;;;2625931;47;20161;-76
2021/09/26 02:39:27;;;;;;;8.98;8.13;;;14.90;99.90;;;;;;2626478;54;20157;-76
2021/09/26 02:42:02;;;;;;;8.43;7.55;;;14.90;99.90;;;;;;2625846;47;20181;-77
2021/09/26 02:44:38;;;;;;;7.57;6.88;;;14.80;99.90;;;;;;2626097;47;20157;-76
2021/09/26 02:47:16;;;;;;;7.90;7.18;;;14.70;99.90;;;;;;2626631;47;20156;-76
2021/09/26 02:49:46;;;;;;;9.38;8.50;;;14.70;99.90;;;;;;2627947;39;20601;-76
2021/09/26 02:52:15;;;;;;;7.90;7.20;;;14.70;99.90;;;;;;2626963;47;20152;-76
2021/09/26 02:54:45;;;;;;;7.88;7.20;;;14.80;99.90;;;;;;2627558;47;20160;-76
2021/09/26 02:57:14;;;;;;;8.15;7.38;;;14.80;99.90;;;;;;2629474;47;20158;-77
2021/09/26 02:59:44;;;;;;;8.55;7.78;;;14.70;99.90;;;;;;2629827;47;20177;-76
2021/09/26 03:02:15;;;;;;;7.22;6.53;;;14.60;99.90;;;;;;2626639;47;20157;-76
2021/09/26 03:04:44;;;;;;;8.52;7.65;;;14.50;99.90;;;;;;2626125;47;20158;-77
2021/09/26 03:07:14;;;;;;;8.88;7.05;;;14.50;99.90;;;;;;2626284;47;20786;-76
2021/09/26 03:09:44;;;;;;;6.47;5.88;;;14.40;99.90;;;;;;2625813;54;20149;-76
2021/09/26 03:12:15;;;;;;;8.77;7.65;;;14.40;99.90;;;;;;2625406;47;20699;-76
2021/09/26 03:14:43;;;;;;;8.02;7.32;;;14.40;99.90;;;;;;2625242;47;20145;-75
2021/09/26 03:17:15;;;;;;;7.55;6.85;;;14.30;99.90;;;;;;2625970;47;20153;-76
2021/09/26 03:19:45;;;;;;;7.13;6.43;;;14.30;99.90;;;;;;2625702;47;20156;-76
2021/09/26 03:22:15;;;;;;;9.18;6.55;;;14.30;99.90;;;;;;2625788;47;20164;-77
2021/09/26 03:24:44;;;;;;;7.85;7.15;;;14.30;99.90;;;;;;2625068;47;20161;-76
2021/09/26 03:27:13;;;;;;;7.97;7.28;;;14.20;99.90;;;;;;2626081;47;20288;-76
2021/09/26 03:29:43;;;;;;;7.85;6.93;;;14.30;99.90;;;;;;2625754;47;20188;-76
2021/09/26 03:32:15;;;;;;;8.27;7.47;;;14.30;99.90;;;;;;2626311;39;20588;-76
2021/09/26 03:34:44;;;;;;;6.82;6.22;;;14.30;99.90;;;;;;2625666;47;20161;-76
2021/09/26 03:37:12;;;;;;;9.88;8.98;;;14.20;99.90;;;;;;2626032;47;20161;-75
2021/09/26 03:39:42;;;;;;;9.07;8.18;;;14.30;99.90;;;;;;2626226;47;20157;-76
2021/09/26 03:42:11;;;;;;;8.13;7.43;;;14.30;99.90;;;;;;2625861;47;20153;-77
2021/09/26 03:44:40;;;;;;;7.05;6.35;;;14.20;99.90;;;;;;2625700;47;20265;-76
2021/09/26 03:47:09;;;;;;;7.70;7.00;;;14.20;99.90;;;;;;2625569;54;20164;-76
2021/09/26 03:49:40;;;;;;;7.80;7.00;;;14.20;99.90;;;;;;2625829;47;20149;-76
2021/09/26 03:52:10;;;;;;;7.10;6.50;;;14.20;99.90;;;;;;2625838;47;20158;-76
2021/09/26 03:54:38;;;;;;;7.47;6.78;;;14.20;99.90;;;;;;2625783;47;20672;-76
2021/09/26 03:57:08;;;;;;;8.07;7.05;;;14.20;99.90;;;;;;2626805;47;20157;-76
2021/09/26 03:59:37;;;;;;;8.93;8.13;;;14.10;99.90;;;;;;2626944;47;20142;-76
2021/09/26 04:02:07;;;;;;;9.77;8.82;;;14.00;99.90;;;;;;2625620;54;20157;-75
2021/09/26 04:04:36;;;;;;;9.10;8.23;;;14.10;99.90;;;;;;2626650;31;20635;-76
2021/09/26 04:07:08;;;;;;;7.28;6.68;;;13.90;99.90;;;;;;2625831;54;20205;-76
2021/09/26 04:09:37;;;;;;;8.75;7.85;;;13.60;99.90;;;;;;2626980;47;20165;-76
2021/09/26 04:12:07;;;;;;;9.15;8.25;;;13.50;99.90;;;;;;2627283;46;20173;-76
2021/09/26 04:14:36;;;;;;;10.48;9.45;;;13.50;99.90;;;;;;2626808;47;20172;-75
2021/09/26 04:17:05;;;;;;;12.02;9.82;;;13.50;99.90;;;;;;2628564;47;20142;-76
2021/09/26 04:19:34;;;;;;;9.52;8.68;;;13.50;99.90;;;;;;2629626;47;20155;-76
2021/09/26 04:22:02;;;;;;;9.57;8.60;;;13.40;99.90;;;;;;2629353;31;20735;-75
2021/09/26 04:24:34;;;;;;;9.13;8.32;;;13.30;99.90;;;;;;2626944;46;20153;-76
2021/09/26 04:27:03;;;;;;;9.55;8.57;;;13.20;99.90;;;;;;2627320;47;20159;-76
2021/09/26 04:29:32;;;;;;;8.77;7.93;;;13.20;99.90;;;;;;2629487;39;20594;-76
2021/09/26 04:32:01;;;;;;;9.30;8.07;;;13.40;99.90;;;;;;2630187;47;20731;-76
2021/09/26 04:34:29;;;;;;;10.85;9.05;;;13.50;99.90;;;;;;2630829;47;20154;-77
2021/09/26 04:36:59;;;;;;;8.25;7.32;;;13.70;99.90;;;;;;2628951;47;20138;-76
2021/09/26 04:39:28;;;;;;;11.65;9.00;;;13.60;99.90;;;;;;2626113;46;20161;-76
2021/09/26 04:41:59;;;;;;;10.02;8.90;;;13.50;99.90;;;;;;2628210;54;20171;-76
2021/09/26 04:44:28;;;;;;;10.05;9.15;;;13.50;99.90;;;;;;2628316;47;20216;-77
2021/09/26 04:46:57;;;;;;;9.30;8.50;;;13.70;99.90;;;;;;2627732;47;20149;-76
2021/09/26 04:49:28;;;;;;;10.23;8.45;;;13.70;99.90;;;;;;2627369;47;20157;-76
2021/09/26 04:51:57;;;;;;;7.95;7.25;;;13.60;99.90;;;;;;2630882;39;20605;-77
2021/09/26 04:54:26;;;;;;;7.82;7.13;;;13.60;99.90;;;;;;2629532;46;20161;-77
2021/09/26 04:56:55;;;;;;;8.02;7.32;;;13.60;99.90;;;;;;2628833;47;20324;-75
2021/09/26 04:59:27;;;;;;;7.30;6.63;;;13.50;99.90;;;;;;2626739;47;20690;-76
2021/09/26 05:01:56;;;;;;;8.00;7.25;;;13.60;99.90;;;;;;2626043;47;20200;-76
2021/09/26 05:04:27;;;;;;;6.93;6.28;;;13.70;99.90;;;;;;2626552;54;20852;-76
2021/09/26 05:06:57;;;;;;;7.15;6.53;;;13.80;99.90;;;;;;2626724;47;20165;-75
2021/09/26 05:09:26;;;;;;;7.78;6.60;;;14.00;99.90;;;;;;2627618;47;20157;-75
2021/09/26 05:11:55;;;;;;;7.72;7.10;;;14.00;99.90;;;;;;2625254;47;20212;-74
2021/09/26 05:14:27;;;;;;;9.60;8.60;;;14.10;99.90;;;;;;2621808;54;20150;-74
2021/09/26 05:16:56;;;;;;;7.60;6.93;;;14.20;99.90;;;;;;2619288;54;20241;-74
2021/09/26 05:19:25;;;;;;;8.02;7.18;;;14.10;99.90;;;;;;2618954;54;20146;-74
2021/09/26 05:21:54;;;;;;;7.28;6.78;;;14.10;99.90;;;;;;2619116;47;20180;-73
2021/09/26 05:24:22;;;;;;;6.50;5.97;;;14.10;99.90;;;;;;2619696;47;20154;-76
2021/09/26 05:26:51;;;;;;;7.85;7.15;;;14.10;99.90;;;;;;2621825;47;20157;-74
2021/09/26 05:29:20;;;;;;;7.55;6.78;;;14.10;99.90;;;;;;2619337;47;20148;-74
2021/09/26 05:31:52;;;;;;;6.95;6.35;;;14.10;99.90;;;;;;2619006;47;20184;-74
2021/09/26 05:34:20;;;;;;;7.25;6.53;;;14.10;99.90;;;;;;2618775;47;20133;-74
2021/09/26 05:36:50;;;;;;;6.70;6.05;;;14.20;99.90;;;;;;2618848;54;20153;-75
2021/09/26 05:39:20;;;;;;;8.30;6.70;;;14.30;99.90;;;;;;2618883;47;20140;-74
2021/09/26 05:41:49;;;;;;;7.10;6.40;;;14.30;99.90;;;;;;2619078;47;20189;-74
2021/09/26 05:44:18;;;;;;;7.72;7.03;;;14.40;99.90;;;;;;2618496;54;20675;-74
2021/09/26 05:46:46;;;;;;;8.00;7.18;;;14.50;99.90;;;;;;2618857;47;20157;-74
2021/09/26 05:49:18;;;;;;;9.27;6.57;;;14.50;99.90;;;;;;2618893;54;20156;-74
2021/09/26 05:51:47;;;;;;;12.27;7.78;;;14.50;99.90;;;;;;2619247;54;20196;-75
2021/09/26 05:54:16;;;;;;;8.43;7.47;;;14.60;99.90;;;;;;2618874;54;20150;-74
2021/09/26 05:56:44;;;;;;;9.48;7.90;;;14.60;99.90;;;;;;2619016;47;20153;-74
2021/09/26 05:59:15;;;;;;;8.63;7.78;;;14.60;99.90;;;;;;2619126;54;20146;-74
2021/09/26 06:01:43;;;;;;;8.57;7.57;;;14.70;99.90;;;;;;2618840;47;20180;-75
2021/09/26 06:04:12;;;;;;;7.40;6.75;;;14.80;99.90;;;;;;2619674;39;20555;-75
2021/09/26 06:06:44;;;;;;;6.47;5.88;;;14.80;99.90;;;;;;2618817;54;20160;-75
2021/09/26 06:09:12;;;;;;;8.02;7.10;;;14.70;99.90;;;;;;2618982;54;20137;-74
2021/09/26 06:11:41;;;;;;;9.50;7.13;;;14.80;99.90;;;;;;2618988;47;20173;-74
2021/09/26 06:14:10;;;;;;;8.15;7.13;;;14.80;99.90;;;;;;2619004;47;20164;-73
2021/09/26 06:16:40;;;;;;;9.23;7.80;;;14.90;99.90;;;;;;2619033;54;20718;-75
2021/09/26 06:19:09;;;;;;;7.95;6.50;;;14.90;99.90;;;;;;2618794;47;20146;-75
2021/09/26 06:21:37;;;;;;;7.97;7.28;;;15.10;99.90;;;;;;2619154;54;20180;-74
2021/09/26 06:24:09;;;;;;;7.53;6.93;;;15.10;99.90;;;;;;2619408;47;20157;-75
2021/09/26 06:26:38;;;;;;;7.97;7.18;;;15.10;99.90;;;;;;2618750;47;20153;-75
2021/09/26 06:29:07;;;;;;;8.45;6.57;;;15.20;99.90;;;;;;2618754;54;20154;-75
2021/09/26 06:31:36;;;;;;;9.57;7.30;;;15.30;99.90;;;;;;2618730;54;20176;-74
2021/09/26 06:34:05;;;;;;;9.07;8.25;;;15.30;99.90;;;;;;2618725;47;20164;-75
2021/09/26 06:36:34;;;;;;;7.75;7.05;;;15.30;99.90;;;;;;2618594;54;20141;-74
2021/09/26 06:39:04;;;;;;;8.30;7.30;;;15.40;99.90;;;;;;2619794;54;20162;-74
2021/09/26 06:41:35;;;;;;;8.07;6.95;;;15.60;99.90;;;;;;2618933;47;20686;-75
2021/09/26 06:44:04;;;;;;;56.75;43.97;;;15.50;99.90;;;;;;2618574;39;20543;-75
2021/09/26 06:46:33;;;;;;;12.32;10.77;;;15.50;99.90;;;;;;2618637;46;20195;-74
2021/09/26 06:49:01;;;;;;;7.63;6.90;;;15.40;99.90;;;;;;2618622;54;20160;-75
2021/09/26 06:51:32;;;;;;;8.07;6.30;;;15.50;99.90;;;;;;2618544;47;20181;-74
2021/09/26 06:54:01;;;;;;;6.47;5.85;;;15.40;99.90;;;;;;2618271;47;20149;-73
2021/09/26 06:56:30;;;;;;;7.25;6.07;;;15.40;99.90;;;;;;2618566;47;20156;-73
2021/09/26 06:59:01;;;;;;;7.60;6.88;;;15.50;99.90;;;;;;2617923;47;20168;-74
2021/09/26 07:01:32;;;;;;;6.35;5.75;;;15.40;99.90;;;;;;2618621;54;20169;-74
2021/09/26 07:04:01;;;;;;;8.95;8.10;;;15.50;99.90;;;;;;2618229;54;20153;-74
2021/09/26 07:06:30;;;;;;;9.23;7.72;;;15.60;99.90;;;;;;2619047;47;20153;-74
2021/09/26 07:08:58;;;;;;;10.65;8.43;;;15.60;99.90;;;;;;2618761;54;20145;-75
2021/09/26 07:11:27;;;;;;;7.78;5.55;;;15.70;99.90;;;;;;2618825;47;20184;-75
2021/09/26 07:13:56;;;;;;;6.40;5.80;;;15.90;99.90;;;;;;2618446;47;20145;-74
2021/09/26 07:16:27;;;;;;;6.70;6.07;;;16.00;99.90;;;;;;2618397;47;20153;-74
2021/09/26 07:18:56;;;;;;;6.10;4.78;;;16.00;99.90;;;;;;2618375;47;20165;-74
2021/09/26 07:21:25;;;;;;;5.95;5.35;;;16.10;99.90;;;;;;2618254;47;20173;-74
2021/09/26 07:23:54;;;;;;;6.75;4.68;;;16.10;99.90;;;;;;2617986;54;20153;-75
2021/09/26 07:26:23;;;;;;;5.38;4.47;;;16.10;99.90;;;;;;2618870;51;20149;-75
2021/09/26 07:28:52;;;;;;;4.70;4.30;;;16.30;99.90;;;;;;2618672;47;20157;-74
2021/09/26 07:31:20;;;;;;;5.45;5.00;;;16.20;99.90;;;;;;2619430;47;20181;-74
2021/09/26 07:33:52;;;;;;;5.97;5.47;;;16.50;99.90;;;;;;2618957;47;20150;-73
2021/09/26 07:36:21;;;;;;;6.68;5.78;;;16.40;99.90;;;;;;2619007;47;20153;-74
2021/09/26 07:38:49;;;;;;;4.95;4.55;;;16.50;99.90;;;;;;2618995;47;20148;-74
2021/09/26 07:41:18;;;;;;;5.30;4.80;;;16.60;99.90;;;;;;2619135;54;20700;-75
2021/09/26 07:43:47;;;;;;;5.32;4.63;;;16.70;99.90;;;;;;2620713;47;20152;-75
2021/09/26 07:46:16;;;;;;;5.57;5.18;;;16.80;99.90;;;;;;2633125;39;20540;-75
2021/09/26 07:48:45;;;;;;;5.25;4.70;;;16.90;99.90;;;;;;2622472;39;20566;-75
2021/09/26 07:51:16;;;;;;;6.00;4.80;;;17.00;99.90;;;;;;2619013;47;20703;-75
2021/09/26 07:53:45;;;;;;;5.13;4.72;;;17.10;99.90;;;;;;2618795;54;20176;-74
2021/09/26 07:56:14;;;;;;;5.70;5.15;;;17.10;99.90;;;;;;2619433;39;20582;-74
2021/09/26 07:58:43;;;;;;;7.18;4.60;;;17.10;99.90;;;;;;2619201;47;20148;-74
2021/09/26 08:01:11;;;;;;;4.82;4.43;;;17.20;99.90;;;;;;2618802;47;20172;-73
2021/09/26 08:03:41;;;;;;;4.97;4.13;;;17.20;99.90;;;;;;2618512;54;20212;-74
2021/09/26 08:06:09;;;;;;;3.67;3.38;;;17.30;99.90;;;;;;2618767;47;20149;-74
2021/09/26 08:08:41;;;;;;;4.97;4.20;;;17.30;99.90;;;;;;2618661;50;20137;-74
2021/09/26 08:11:10;;;;;;;5.80;4.82;;;17.50;99.90;;;;;;2618559;47;20169;-74
2021/09/26 08:13:39;;;;;;;5.40;4.90;;;17.70;99.90;;;;;;2618157;54;20137;-73
2021/09/26 08:16:07;;;;;;;5.05;4.15;;;17.80;99.90;;;;;;2619252;39;20576;-75
2021/09/26 08:18:36;;;;;;;4.95;4.40;;;17.80;99.90;;;;;;2618832;47;20149;-74
2021/09/26 08:21:05;;;;;;;5.05;4.65;;;17.90;99.90;;;;;;2618745;47;20180;-74
2021/09/26 08:23:34;;;;;;;4.75;3.53;;;18.00;99.90;;;;;;2618521;47;20158;-74
2021/09/26 08:26:05;;;;;;;4.13;3.83;;;18.30;99.90;;;;;;2618818;47;20145;-74
2021/09/26 08:28:34;;;;;;;4.35;3.95;;;18.40;99.90;;;;;;2618932;54;20187;-73
2021/09/26 08:31:03;;;;;;;5.35;4.00;;;18.60;99.90;;;;;;2619010;54;20165;-74
2021/09/26 08:33:32;;;;;;;8.32;4.53;;;18.90;99.90;;;;;;2619002;47;20165;-74
2021/09/26 08:36:01;;;;;;;3.88;3.58;;;19.00;99.90;;;;;;2618224;47;20691;-75
2021/09/26 08:38:30;;;;;;;5.82;3.38;;;19.10;99.90;;;;;;2619158;54;20157;-74
2021/09/26 08:40:59;;;;;;;5.32;3.55;;;19.30;99.90;;;;;;2618828;47;20184;-75
2021/09/26 08:43:32;;;;;;;5.82;3.45;;;19.50;99.90;;;;;;2620055;47;20156;-74
2021/09/26 08:46:01;;;;;;;6.95;4.97;;;19.60;99.90;;;;;;2618918;47;20149;-75
2021/09/26 08:48:31;;;;;;;4.00;3.70;;;19.80;99.90;;;;;;2621491;47;20157;-74
2021/09/26 08:51:00;;;;;;;3.63;3.33;;;20.00;99.90;;;;;;2621424;47;20168;-73
2021/09/26 08:53:29;;;;;;;3.13;2.92;;;20.00;99.90;;;;;;2621225;54;20141;-72
2021/09/26 08:55:59;;;;;;;4.72;3.70;;;20.10;99.90;;;;;;2620139;47;20268;-74
2021/09/26 08:58:30;;;;;;;3.92;3.53;;;20.30;99.90;;;;;;2619441;47;20172;-73
2021/09/26 09:00:59;;;;;;;5.05;3.50;;;20.40;99.90;;;;;;2619639;54;20176;-73
2021/09/26 09:03:29;;;;;;;6.22;3.33;;;20.50;99.90;;;;;;2620002;54;20145;-73
2021/09/26 09:05:58;;;;;;;4.85;3.33;;;20.70;99.90;;;;;;2620802;54;20690;-73
2021/09/26 09:08:27;;;;;;;4.40;3.80;;;20.50;99.90;;;;;;2620741;54;20715;-73
2021/09/26 09:10:58;;;;;;;4.10;3.53;;;20.40;99.90;;;;;;2619327;47;20173;-74
2021/09/26 09:13:36;;;;;;;4.20;3.80;;;20.40;99.90;;;;;;2621682;54;20157;-74
2021/09/26 09:16:07;;;;;;;8.40;7.57;;;20.30;99.90;;;;;;2619485;47;20694;-72
2021/09/26 09:18:42;;;;;;;5.93;4.95;;;20.40;99.90;;;;;;2618956;54;20149;-73
2021/09/26 09:21:19;;;;;;;7.43;4.47;;;20.70;99.90;;;;;;2619462;39;20555;-75
2021/09/26 09:23:48;;;;;;;4.60;3.85;;;20.90;99.90;;;;;;2618739;47;20252;-73
2021/09/26 09:26:18;;;;;;;4.45;3.78;;;21.30;99.90;;;;;;2618566;54;20146;-74
2021/09/26 09:28:51;;;;;;;4.43;4.03;;;21.60;99.90;;;;;;2618688;47;20137;-73
2021/09/26 09:31:23;;;;;;;4.15;3.80;;;21.70;99.90;;;;;;2618996;49;20221;-72
2021/09/26 09:33:51;;;;;;;5.15;4.68;;;22.10;99.90;;;;;;2618848;47;20149;-76
2021/09/26 09:36:23;;;;;;;4.65;4.18;;;22.30;99.90;;;;;;2619054;47;20156;-73
2021/09/26 09:38:53;;;;;;;4.10;3.70;;;22.30;99.90;;;;;;2619081;54;20137;-73
2021/09/26 09:41:36;;;;;;;3.92;3.47;;;22.30;99.90;;;;;;2618964;47;20181;-74
2021/09/26 09:44:08;;;;;;;5.82;4.60;;;22.60;99.90;;;;;;2619180;54;20141;-75
2021/09/26 09:46:40;;;;;;;4.80;3.67;;;22.90;99.90;;;;;;2619834;47;20253;-76
2021/09/26 09:49:14;;;;;;;3.78;3.47;;;23.10;99.90;;;;;;2618680;47;20153;-74
2021/09/26 09:51:50;;;;;;;4.93;3.90;;;23.30;99.90;;;;;;2618294;47;20687;-74
2021/09/26 09:54:28;;;;;;;3.72;3.42;;;23.20;99.90;;;;;;2618693;54;20133;-74
2021/09/26 09:56:59;;;;;;;6.20;3.97;;;23.20;99.90;;;;;;2618112;47;20161;-74
2021/09/26 09:59:38;;;;;;;6.80;4.30;;;23.30;99.90;;;;;;2618422;39;20579;-74
2021/09/26 10:02:07;;;;;;;5.68;3.55;;;23.50;99.90;;;;;;2618670;54;20172;-74
2021/09/26 10:04:41;;;;;;;4.82;4.43;;;23.60;99.90;;;;;;2618458;54;20214;-75
2021/09/26 10:07:22;;;;;;;4.70;4.10;;;23.60;99.90;;;;;;2619038;47;20722;-74
2021/09/26 10:09:51;;;;;;;5.70;4.35;;;23.50;99.90;;;;;;2618923;47;20145;-74
2021/09/26 10:12:24;;;;;;;4.45;4.03;;;23.40;99.90;;;;;;2624702;54;20264;-75
2021/09/26 10:14:57;;;;;;;4.70;3.67;;;23.50;99.90;;;;;;2618068;47;20165;-73
2021/09/26 10:17:26;;;;;;;4.90;4.47;;;23.70;99.90;;;;;;2619053;47;20141;-74
2021/09/26 10:19:55;;;;;;;5.03;3.90;;;23.90;99.90;;;;;;2618589;54;20161;-73
2021/09/26 10:22:25;;;;;;;4.97;4.57;;;24.00;99.90;;;;;;2617911;54;20173;-73
2021/09/26 10:24:56;;;;;;;6.00;4.35;;;24.20;99.90;;;;;;2624232;54;20142;-79
2021/09/26 10:27:30;;;;;;;5.30;4.32;;;24.40;99.90;;;;;;2620355;47;20157;-74
2021/09/26 10:30:08;;;;;;;4.57;4.15;;;24.50;99.90;;;;;;2618681;54;20153;-72
2021/09/26 10:32:37;;;;;;;4.03;3.63;;;25.20;99.90;;;;;;2619913;54;20152;-73
2021/09/26 10:35:08;;;;;;;5.95;3.90;;;26.30;99.90;;;;;;2619392;54;20149;-75
2021/09/26 10:37:37;;;;;;;5.35;4.15;;;26.50;99.90;;;;;;2618251;54;20153;-73
2021/09/26 10:40:08;;;;;;;4.10;3.70;;;25.30;99.90;;;;;;2618088;47;20153;-73
2021/09/26 10:42:39;;;;;;;5.78;4.13;;;24.90;99.90;;;;;;2619734;47;20149;-77
2021/09/26 10:45:12;;;;;;;4.53;4.03;;;24.30;99.90;;;;;;2619086;54;20180;-74
2021/09/26 10:47:42;;;;;;;5.28;4.50;;;24.10;99.90;;;;;;2618416;47;20153;-74
2021/09/26 10:50:15;;;;;;;5.78;3.63;;;24.40;99.90;;;;;;2619952;54;20687;-74
2021/09/26 10:52:46;;;;;;;9.60;3.65;;;25.40;99.90;;;;;;2621692;54;20739;-74
2021/09/26 10:55:32;;;;;;;6.53;3.72;;;25.40;99.90;;;;;;2617521;47;20184;-74
2021/09/26 10:58:15;;;;;;;6.55;4.18;;;24.80;99.90;;;;;;2618044;47;20145;-75
2021/09/26 11:00:57;;;;;;;5.05;4.57;;;24.30;99.90;;;;;;2618010;54;20169;-74
2021/09/26 11:03:37;;;;;;;4.15;3.83;;;23.90;99.90;;;;;;2617658;54;20179;-73
2021/09/26 11:06:25;;;;;;;4.63;4.18;;;23.90;99.90;;;;;;2625535;47;20165;-79
2021/09/26 11:08:55;;;;;;;8.85;4.43;;;24.00;99.90;;;;;;2625404;47;20179;-75
2021/09/26 11:13:09;;;;;;;4.80;4.28;;;24.40;99.90;;;;;;2626776;46;20223;-77
2021/09/26 11:16:13;;;;;;;5.03;4.28;;;24.70;99.90;;;;;;2628974;47;20137;-78
2021/09/26 11:18:59;;;;;;;4.05;3.72;;;25.70;99.90;;;;;;2630508;47;20157;-78
2021/09/26 11:21:58;;;;;;;6.40;4.13;;;26.50;99.90;;;;;;2629383;47;20180;-75
2021/09/26 11:24:43;;;;;;;4.55;4.15;;;27.20;99.90;;;;;;2624170;54;20291;-75
2021/09/26 11:27:31;;;;;;;5.88;4.90;;;27.20;99.90;;;;;;2627600;54;20151;-76
2021/09/26 11:30:30;;;;;;;4.72;4.20;;;27.00;99.90;;;;;;2628782;54;20133;-77
2021/09/26 11:33:01;;;;;;;4.55;4.13;;;26.40;99.90;;;;;;2624327;47;20154;-76
2021/09/26 11:35:35;;;;;;;4.57;3.70;;;26.60;99.90;;;;;;2624130;47;20221;-78
2021/09/26 11:38:07;;;;;;;5.28;4.03;;;26.70;99.90;;;;;;2624779;47;20168;-76
2021/09/26 11:40:52;;;;;;;6.53;3.55;;;27.00;99.90;;;;;;2624946;47;20153;-75
2021/09/26 11:43:23;;;;;;;4.20;3.80;;;27.20;99.90;;;;;;2624501;47;20195;-75
2021/09/26 11:45:52;;;;;;;8.77;5.00;;;27.30;99.90;;;;;;2623116;47;20153;-73
2021/09/26 11:48:21;;;;;;;4.65;3.97;;;27.30;99.90;;;;;;2622971;54;20157;-75
2021/09/26 11:50:52;;;;;;;7.30;4.05;;;26.90;99.90;;;;;;2625877;47;20145;-75
2021/09/26 11:53:23;;;;;;;4.82;3.88;;;26.70;99.90;;;;;;2624203;47;20696;-75
2021/09/26 11:55:52;;;;;;;5.40;3.58;;;26.50;99.90;;;;;;2624196;54;20201;-76
2021/09/26 11:58:20;;;;;;;5.10;3.75;;;26.80;99.90;;;;;;2625075;47;20153;-75
2021/09/26 12:00:50;;;;;;;3.72;3.47;;;26.70;99.90;;;;;;2622698;47;20158;-76
2021/09/26 12:03:24;;;;;;;3.97;3.65;;;26.90;99.90;;;;;;2622751;54;20563;-76
2021/09/26 12:05:57;;;;;;;3.90;3.58;;;27.20;99.90;;;;;;2624722;39;20660;-76
2021/09/26 12:08:26;;;;;;;5.93;3.92;;;27.00;99.90;;;;;;2624563;47;20169;-76
2021/09/26 12:11:07;;;;;;;4.70;4.28;;;27.00;99.90;;;;;;2624087;54;20157;-76
2021/09/26 12:13:46;;;;;;;4.05;3.65;;;26.40;99.90;;;;;;2628070;31;20697;-75
2021/09/26 12:16:15;;;;;;;4.57;4.05;;;26.20;99.90;;;;;;2624125;54;20146;-75
2021/09/26 12:18:51;;;;;;;4.13;3.70;;;26.10;99.90;;;;;;2624070;54;20157;-75
2021/09/26 12:21:26;;;;;;;4.13;3.83;;;26.00;99.90;;;;;;2622343;47;20180;-74
2021/09/26 12:24:00;;;;;;;7.18;4.05;;;25.80;99.90;;;;;;2621752;54;20158;-74
2021/09/26 12:26:31;;;;;;;4.15;3.85;;;26.00;99.90;;;;;;2622208;47;20698;-75
2021/09/26 12:29:07;;;;;;;5.03;3.53;;;26.00;99.90;;;;;;2624066;54;20253;-74
2021/09/26 12:31:37;;;;;;;6.15;3.85;;;26.00;99.90;;;;;;2621886;54;20157;-74
2021/09/26 12:34:09;;;;;;;5.80;4.05;;;25.80;99.90;;;;;;2620758;54;20675;-74
2021/09/26 12:36:42;;;;;;;3.92;3.63;;;26.10;99.90;;;;;;2620122;47;20153;-73
2021/09/26 12:39:21;;;;;;;5.53;3.58;;;26.60;99.90;;;;;;2620253;54;20146;-74
2021/09/26 12:41:53;;;;;;;4.75;3.58;;;26.90;99.90;;;;;;2631200;47;20180;-77
2021/09/26 12:44:32;;;;;;;6.28;4.15;;;27.00;99.90;;;;;;2631121;54;20153;-75
2021/09/26 12:47:04;;;;;;;6.63;4.13;;;27.40;99.90;;;;;;2631138;54;20185;-76
2021/09/26 12:49:36;;;;;;;5.70;4.50;;;27.80;99.90;;;;;;2630969;54;20165;-76
2021/09/26 12:52:10;;;;;;;6.45;2.83;;;28.00;99.90;;;;;;2627870;54;20164;-76
2021/09/26 12:54:46;;;;;;;4.82;4.50;;;27.40;99.90;;;;;;2630251;54;20820;-75
2021/09/26 12:57:20;;;;;;;5.82;4.55;;;27.10;99.90;;;;;;2625621;39;20573;-74
2021/09/26 12:59:50;;;;;;;3.88;3.33;;;26.50;99.90;;;;;;2621766;54;20165;-73
2021/09/26 13:02:22;;;;;;;4.88;3.38;;;26.30;99.90;;;;;;2620553;54;20180;-74
2021/09/26 13:05:01;;;;;;;4.60;3.78;;;26.30;99.90;;;;;;2619924;47;20718;-75
2021/09/26 13:07:32;;;;;;;4.72;4.03;;;26.80;99.90;;;;;;2620923;46;20736;-75
2021/09/26 13:10:06;;;;;;;3.72;3.42;;;27.10;99.90;;;;;;2620631;47;20154;-76